Terminal Aerodrome Forecast
Issued by NWS

Home | Current Version | Previous Version | Graphics & Text | Print | Product List | Glossary On
Versions: 1 2 3 4 5 6 7 8 9 10 11 12 13 14 15 16 17 18 19 20 21 22 23 24 25 26 27 28 29 30 31 32
000
FTUS43 KGRB 211149
TAFRHI
TAF
KRHI 211149Z 2112/2212 10008KT 3SM BR OVC004
     FM211600 15006KT 5SM BR VCSH OVC006
     FM212100 23009G15KT P6SM VCSH OVC012
     FM220100 24007KT P6SM VCSH OVC015=

USA.gov is the U.S. government's official web portal to all federal, state and local government web resources and services.